sensor_id;sensor_type;location;lat;lon;timestamp;P1;durP1;ratioP1;P2;durP2;ratioP2
11541;SDS011;5827;49.482;7.716;2022-07-12T00:00:17;7.97;;;7.17;;
11541;SDS011;5827;49.482;7.716;2022-07-12T00:02:19;8.30;;;6.80;;
11541;SDS011;5827;49.482;7.716;2022-07-12T00:04:20;8.63;;;7.83;;
11541;SDS011;5827;49.482;7.716;2022-07-12T00:06:22;7.70;;;7.10;;
11541;SDS011;5827;49.482;7.716;2022-07-12T00:08:23;7.87;;;7.17;;
11541;SDS011;5827;49.482;7.716;2022-07-12T00:10:26;8.20;;;7.40;;
11541;SDS011;5827;49.482;7.716;2022-07-12T00:12:28;7.73;;;7.13;;
11541;SDS011;5827;49.482;7.716;2022-07-12T00:14:30;7.70;;;7.00;;
11541;SDS011;5827;49.482;7.716;2022-07-12T00:16:31;8.70;;;7.63;;
11541;SDS011;5827;49.482;7.716;2022-07-12T00:18:33;8.63;;;7.87;;
11541;SDS011;5827;49.482;7.716;2022-07-12T00:20:34;8.37;;;7.67;;
11541;SDS011;5827;49.482;7.716;2022-07-12T00:22:36;9.27;;;8.33;;
11541;SDS011;5827;49.482;7.716;2022-07-12T00:24:38;8.40;;;7.60;;
11541;SDS011;5827;49.482;7.716;2022-07-12T00:26:42;8.60;;;7.80;;
11541;SDS011;5827;49.482;7.716;2022-07-12T00:28:43;8.40;;;7.60;;
11541;SDS011;5827;49.482;7.716;2022-07-12T00:30:45;8.60;;;7.87;;
11541;SDS011;5827;49.482;7.716;2022-07-12T00:32:47;8.67;;;7.87;;
11541;SDS011;5827;49.482;7.716;2022-07-12T00:34:49;9.03;;;8.23;;
11541;SDS011;5827;49.482;7.716;2022-07-12T00:36:50;8.50;;;7.80;;
11541;SDS011;5827;49.482;7.716;2022-07-12T00:38:52;8.93;;;7.73;;
11541;SDS011;5827;49.482;7.716;2022-07-12T00:40:53;9.27;;;7.33;;
11541;SDS011;5827;49.482;7.716;2022-07-12T00:42:56;8.23;;;7.30;;
11541;SDS011;5827;49.482;7.716;2022-07-12T00:44:58;8.33;;;7.10;;
11541;SDS011;5827;49.482;7.716;2022-07-12T00:46:59;7.87;;;7.23;;
11541;SDS011;5827;49.482;7.716;2022-07-12T00:49:01;8.60;;;7.70;;
11541;SDS011;5827;49.482;7.716;2022-07-12T00:51:03;8.20;;;7.50;;
11541;SDS011;5827;49.482;7.716;2022-07-12T00:53:05;8.30;;;7.57;;
11541;SDS011;5827;49.482;7.716;2022-07-12T00:55:07;8.77;;;7.97;;
11541;SDS011;5827;49.482;7.716;2022-07-12T00:57:09;8.80;;;7.90;;
11541;SDS011;5827;49.482;7.716;2022-07-12T00:59:12;8.17;;;7.37;;
11541;SDS011;5827;49.482;7.716;2022-07-12T01:01:14;9.00;;;8.10;;
11541;SDS011;5827;49.482;7.716;2022-07-12T01:03:15;9.13;;;8.33;;
11541;SDS011;5827;49.482;7.716;2022-07-12T01:05:17;8.23;;;7.33;;
11541;SDS011;5827;49.482;7.716;2022-07-12T01:07:18;8.67;;;7.90;;
11541;SDS011;5827;49.482;7.716;2022-07-12T01:09:20;8.90;;;8.10;;
11541;SDS011;5827;49.482;7.716;2022-07-12T01:11:21;8.03;;;7.33;;
11541;SDS011;5827;49.482;7.716;2022-07-12T01:13:23;8.80;;;8.00;;
11541;SDS011;5827;49.482;7.716;2022-07-12T01:15:26;8.53;;;7.83;;
11541;SDS011;5827;49.482;7.716;2022-07-12T01:17:30;9.60;;;8.70;;
11541;SDS011;5827;49.482;7.716;2022-07-12T01:19:32;8.80;;;8.00;;
11541;SDS011;5827;49.482;7.716;2022-07-12T01:21:34;8.93;;;8.13;;
11541;SDS011;5827;49.482;7.716;2022-07-12T01:23:40;9.13;;;7.97;;
11541;SDS011;5827;49.482;7.716;2022-07-12T01:25:42;9.93;;;8.80;;
11541;SDS011;5827;49.482;7.716;2022-07-12T01:27:44;8.50;;;7.80;;
11541;SDS011;5827;49.482;7.716;2022-07-12T01:29:46;9.40;;;8.50;;
11541;SDS011;5827;49.482;7.716;2022-07-12T01:31:47;9.07;;;8.27;;
11541;SDS011;5827;49.482;7.716;2022-07-12T01:33:49;8.77;;;7.87;;
11541;SDS011;5827;49.482;7.716;2022-07-12T01:35:51;9.00;;;8.20;;
11541;SDS011;5827;49.482;7.716;2022-07-12T01:37:52;8.70;;;7.93;;
11541;SDS011;5827;49.482;7.716;2022-07-12T01:39:56;8.77;;;8.00;;
11541;SDS011;5827;49.482;7.716;2022-07-12T01:41:59;8.80;;;7.97;;
11541;SDS011;5827;49.482;7.716;2022-07-12T01:44:01;8.57;;;7.83;;
11541;SDS011;5827;49.482;7.716;2022-07-12T01:46:03;8.80;;;8.00;;
11541;SDS011;5827;49.482;7.716;2022-07-12T01:48:04;9.07;;;8.17;;
11541;SDS011;5827;49.482;7.716;2022-07-12T01:50:07;9.37;;;8.53;;
11541;SDS011;5827;49.482;7.716;2022-07-12T01:52:10;9.13;;;8.23;;
11541;SDS011;5827;49.482;7.716;2022-07-12T01:54:12;8.90;;;8.00;;
11541;SDS011;5827;49.482;7.716;2022-07-12T01:56:15;9.07;;;8.27;;
11541;SDS011;5827;49.482;7.716;2022-07-12T01:58:16;8.77;;;7.97;;
11541;SDS011;5827;49.482;7.716;2022-07-12T02:00:18;10.03;;;7.93;;
11541;SDS011;5827;49.482;7.716;2022-07-12T02:02:20;9.10;;;8.30;;
11541;SDS011;5827;49.482;7.716;2022-07-12T02:04:22;9.43;;;8.57;;
11541;SDS011;5827;49.482;7.716;2022-07-12T02:06:24;8.53;;;7.83;;
11541;SDS011;5827;49.482;7.716;2022-07-12T02:08:27;8.83;;;8.03;;
11541;SDS011;5827;49.482;7.716;2022-07-12T02:10:29;9.87;;;8.87;;
11541;SDS011;5827;49.482;7.716;2022-07-12T02:12:32;9.83;;;9.03;;
11541;SDS011;5827;49.482;7.716;2022-07-12T02:14:34;10.67;;;9.63;;
11541;SDS011;5827;49.482;7.716;2022-07-12T02:16:35;10.60;;;9.60;;
11541;SDS011;5827;49.482;7.716;2022-07-12T02:18:37;10.63;;;9.63;;
11541;SDS011;5827;49.482;7.716;2022-07-12T02:20:38;10.10;;;8.77;;
11541;SDS011;5827;49.482;7.716;2022-07-12T02:22:40;10.13;;;9.17;;
11541;SDS011;5827;49.482;7.716;2022-07-12T02:24:41;10.23;;;9.33;;
11541;SDS011;5827;49.482;7.716;2022-07-12T02:26:43;9.63;;;8.83;;
11541;SDS011;5827;49.482;7.716;2022-07-12T02:28:46;9.40;;;8.50;;
11541;SDS011;5827;49.482;7.716;2022-07-12T02:30:47;9.13;;;8.23;;
11541;SDS011;5827;49.482;7.716;2022-07-12T02:32:49;9.23;;;8.43;;
11541;SDS011;5827;49.482;7.716;2022-07-12T02:34:50;10.30;;;9.20;;
11541;SDS011;5827;49.482;7.716;2022-07-12T02:36:52;10.07;;;9.17;;
11541;SDS011;5827;49.482;7.716;2022-07-12T02:38:53;10.27;;;9.13;;
11541;SDS011;5827;49.482;7.716;2022-07-12T02:40:55;9.23;;;8.33;;
11541;SDS011;5827;49.482;7.716;2022-07-12T02:42:55;9.90;;;8.90;;
11541;SDS011;5827;49.482;7.716;2022-07-12T02:44:58;9.60;;;8.73;;
11541;SDS011;5827;49.482;7.716;2022-07-12T02:47:00;9.57;;;8.57;;
11541;SDS011;5827;49.482;7.716;2022-07-12T02:49:01;9.93;;;8.97;;
11541;SDS011;5827;49.482;7.716;2022-07-12T02:51:03;9.50;;;8.70;;
11541;SDS011;5827;49.482;7.716;2022-07-12T02:53:06;9.37;;;8.40;;
11541;SDS011;5827;49.482;7.716;2022-07-12T02:55:09;12.90;;;9.10;;
11541;SDS011;5827;49.482;7.716;2022-07-12T02:57:11;9.90;;;8.93;;
11541;SDS011;5827;49.482;7.716;2022-07-12T02:59:12;9.97;;;9.07;;
11541;SDS011;5827;49.482;7.716;2022-07-12T03:01:15;8.73;;;7.93;;
11541;SDS011;5827;49.482;7.716;2022-07-12T03:03:16;9.03;;;8.20;;
11541;SDS011;5827;49.482;7.716;2022-07-12T03:05:18;8.63;;;7.83;;
11541;SDS011;5827;49.482;7.716;2022-07-12T03:07:20;9.53;;;8.60;;
11541;SDS011;5827;49.482;7.716;2022-07-12T03:09:22;10.20;;;9.13;;
11541;SDS011;5827;49.482;7.716;2022-07-12T03:11:24;10.07;;;8.83;;
11541;SDS011;5827;49.482;7.716;2022-07-12T03:13:25;9.73;;;8.80;;
11541;SDS011;5827;49.482;7.716;2022-07-12T03:15:27;8.97;;;8.17;;
11541;SDS011;5827;49.482;7.716;2022-07-12T03:17:30;9.80;;;8.90;;
11541;SDS011;5827;49.482;7.716;2022-07-12T03:19:31;8.77;;;7.97;;
11541;SDS011;5827;49.482;7.716;2022-07-12T03:21:33;9.70;;;8.80;;
11541;SDS011;5827;49.482;7.716;2022-07-12T03:23:35;9.30;;;8.33;;
11541;SDS011;5827;49.482;7.716;2022-07-12T03:25:36;9.37;;;7.80;;
11541;SDS011;5827;49.482;7.716;2022-07-12T03:27:38;8.73;;;7.57;;
11541;SDS011;5827;49.482;7.716;2022-07-12T03:29:40;9.00;;;8.20;;
11541;SDS011;5827;49.482;7.716;2022-07-12T03:31:41;8.10;;;7.40;;
11541;SDS011;5827;49.482;7.716;2022-07-12T03:33:44;7.87;;;7.17;;
11541;SDS011;5827;49.482;7.716;2022-07-12T03:35:45;8.53;;;7.67;;
11541;SDS011;5827;49.482;7.716;2022-07-12T03:37:47;8.17;;;7.47;;
11541;SDS011;5827;49.482;7.716;2022-07-12T03:39:50;8.90;;;8.00;;
11541;SDS011;5827;49.482;7.716;2022-07-12T03:41:53;9.03;;;8.23;;
11541;SDS011;5827;49.482;7.716;2022-07-12T03:43:54;8.67;;;7.87;;
11541;SDS011;5827;49.482;7.716;2022-07-12T03:45:56;7.87;;;7.17;;
11541;SDS011;5827;49.482;7.716;2022-07-12T03:47:57;8.50;;;7.70;;
11541;SDS011;5827;49.482;7.716;2022-07-12T03:50:01;8.23;;;7.40;;
11541;SDS011;5827;49.482;7.716;2022-07-12T03:52:05;8.27;;;7.57;;
11541;SDS011;5827;49.482;7.716;2022-07-12T03:54:07;7.90;;;7.20;;
11541;SDS011;5827;49.482;7.716;2022-07-12T03:56:08;7.83;;;7.13;;
11541;SDS011;5827;49.482;7.716;2022-07-12T03:58:30;8.27;;;7.57;;
11541;SDS011;5827;49.482;7.716;2022-07-12T04:00:31;7.97;;;7.30;;
11541;SDS011;5827;49.482;7.716;2022-07-12T04:02:33;8.73;;;7.80;;
11541;SDS011;5827;49.482;7.716;2022-07-12T04:04:34;9.37;;;8.47;;
11541;SDS011;5827;49.482;7.716;2022-07-12T04:06:37;9.17;;;8.37;;
11541;SDS011;5827;49.482;7.716;2022-07-12T04:08:39;10.00;;;8.43;;
11541;SDS011;5827;49.482;7.716;2022-07-12T04:10:40;9.33;;;8.43;;
11541;SDS011;5827;49.482;7.716;2022-07-12T04:12:42;9.03;;;8.23;;
11541;SDS011;5827;49.482;7.716;2022-07-12T04:14:43;8.17;;;7.43;;
11541;SDS011;5827;49.482;7.716;2022-07-12T04:16:45;9.33;;;8.33;;
11541;SDS011;5827;49.482;7.716;2022-07-12T04:18:46;9.50;;;8.60;;
11541;SDS011;5827;49.482;7.716;2022-07-12T04:20:48;9.60;;;8.70;;
11541;SDS011;5827;49.482;7.716;2022-07-12T04:22:51;9.10;;;8.30;;
11541;SDS011;5827;49.482;7.716;2022-07-12T04:24:52;9.47;;;8.57;;
11541;SDS011;5827;49.482;7.716;2022-07-12T04:26:54;9.20;;;8.30;;
11541;SDS011;5827;49.482;7.716;2022-07-12T04:28:55;9.20;;;7.90;;
11541;SDS011;5827;49.482;7.716;2022-07-12T04:30:57;8.97;;;8.10;;
11541;SDS011;5827;49.482;7.716;2022-07-12T04:32:58;9.37;;;8.57;;
11541;SDS011;5827;49.482;7.716;2022-07-12T04:35:00;9.17;;;8.27;;
11541;SDS011;5827;49.482;7.716;2022-07-12T04:37:02;9.07;;;8.23;;
11541;SDS011;5827;49.482;7.716;2022-07-12T04:39:05;9.27;;;8.37;;
11541;SDS011;5827;49.482;7.716;2022-07-12T04:41:06;10.83;;;8.50;;
11541;SDS011;5827;49.482;7.716;2022-07-12T04:43:08;8.90;;;7.50;;
11541;SDS011;5827;49.482;7.716;2022-07-12T04:45:09;8.07;;;7.27;;
11541;SDS011;5827;49.482;7.716;2022-07-12T04:47:11;8.13;;;7.40;;
11541;SDS011;5827;49.482;7.716;2022-07-12T04:49:13;7.73;;;7.03;;
11541;SDS011;5827;49.482;7.716;2022-07-12T04:51:14;7.93;;;7.20;;
11541;SDS011;5827;49.482;7.716;2022-07-12T04:53:16;7.70;;;6.90;;
11541;SDS011;5827;49.482;7.716;2022-07-12T04:55:19;7.90;;;7.10;;
11541;SDS011;5827;49.482;7.716;2022-07-12T04:57:21;7.20;;;6.57;;
11541;SDS011;5827;49.482;7.716;2022-07-12T04:59:22;8.03;;;6.90;;
11541;SDS011;5827;49.482;7.716;2022-07-12T05:01:25;6.83;;;6.23;;
11541;SDS011;5827;49.482;7.716;2022-07-12T05:03:26;7.10;;;6.47;;
11541;SDS011;5827;49.482;7.716;2022-07-12T05:05:29;7.00;;;6.40;;
11541;SDS011;5827;49.482;7.716;2022-07-12T05:07:30;6.00;;;5.50;;
11541;SDS011;5827;49.482;7.716;2022-07-12T05:09:32;8.57;;;6.67;;
11541;SDS011;5827;49.482;7.716;2022-07-12T05:11:35;8.27;;;7.17;;
11541;SDS011;5827;49.482;7.716;2022-07-12T05:13:37;6.50;;;5.90;;
11541;SDS011;5827;49.482;7.716;2022-07-12T05:15:38;6.53;;;5.93;;
11541;SDS011;5827;49.482;7.716;2022-07-12T05:17:40;7.20;;;6.50;;
11541;SDS011;5827;49.482;7.716;2022-07-12T05:19:41;7.00;;;6.30;;
11541;SDS011;5827;49.482;7.716;2022-07-12T05:21:44;7.37;;;6.20;;
11541;SDS011;5827;49.482;7.716;2022-07-12T05:23:45;9.90;;;6.43;;
11541;SDS011;5827;49.482;7.716;2022-07-12T05:25:47;8.63;;;6.57;;
11541;SDS011;5827;49.482;7.716;2022-07-12T05:27:50;7.70;;;6.80;;
11541;SDS011;5827;49.482;7.716;2022-07-12T05:29:52;9.33;;;6.57;;
11541;SDS011;5827;49.482;7.716;2022-07-12T05:31:54;7.67;;;6.87;;
11541;SDS011;5827;49.482;7.716;2022-07-12T05:33:56;7.87;;;7.17;;
11541;SDS011;5827;49.482;7.716;2022-07-12T05:35:57;7.33;;;6.70;;
11541;SDS011;5827;49.482;7.716;2022-07-12T05:37:59;7.67;;;6.97;;
11541;SDS011;5827;49.482;7.716;2022-07-12T05:40:01;6.83;;;6.23;;
11541;SDS011;5827;49.482;7.716;2022-07-12T05:42:03;6.97;;;6.37;;
11541;SDS011;5827;49.482;7.716;2022-07-12T05:44:06;7.23;;;6.27;;
11541;SDS011;5827;49.482;7.716;2022-07-12T05:46:08;6.97;;;6.27;;
11541;SDS011;5827;49.482;7.716;2022-07-12T05:48:10;7.20;;;6.60;;
11541;SDS011;5827;49.482;7.716;2022-07-12T05:50:12;8.67;;;6.90;;
11541;SDS011;5827;49.482;7.716;2022-07-12T05:52:14;6.63;;;6.03;;
11541;SDS011;5827;49.482;7.716;2022-07-12T05:54:32;6.87;;;6.27;;
11541;SDS011;5827;49.482;7.716;2022-07-12T05:56:34;7.07;;;6.40;;
11541;SDS011;5827;49.482;7.716;2022-07-12T05:58:35;7.27;;;6.57;;
11541;SDS011;5827;49.482;7.716;2022-07-12T06:00:38;7.33;;;6.70;;
11541;SDS011;5827;49.482;7.716;2022-07-12T06:02:40;7.00;;;6.00;;
11541;SDS011;5827;49.482;7.716;2022-07-12T06:04:41;6.37;;;5.77;;
11541;SDS011;5827;49.482;7.716;2022-07-12T06:06:43;6.70;;;6.10;;
11541;SDS011;5827;49.482;7.716;2022-07-12T06:08:44;7.03;;;6.43;;
11541;SDS011;5827;49.482;7.716;2022-07-12T06:10:46;7.10;;;6.40;;
11541;SDS011;5827;49.482;7.716;2022-07-12T06:12:47;6.90;;;6.13;;
11541;SDS011;5827;49.482;7.716;2022-07-12T06:14:49;6.17;;;5.63;;
11541;SDS011;5827;49.482;7.716;2022-07-12T06:16:52;6.37;;;5.77;;
11541;SDS011;5827;49.482;7.716;2022-07-12T06:18:53;6.80;;;5.53;;
11541;SDS011;5827;49.482;7.716;2022-07-12T06:20:55;5.67;;;5.17;;
11541;SDS011;5827;49.482;7.716;2022-07-12T06:22:57;5.30;;;4.63;;
11541;SDS011;5827;49.482;7.716;2022-07-12T06:24:58;6.03;;;5.43;;
11541;SDS011;5827;49.482;7.716;2022-07-12T06:27:00;5.40;;;4.90;;
11541;SDS011;5827;49.482;7.716;2022-07-12T06:29:01;5.20;;;4.70;;
11541;SDS011;5827;49.482;7.716;2022-07-12T06:31:03;5.13;;;4.67;;
11541;SDS011;5827;49.482;7.716;2022-07-12T06:33:06;5.60;;;4.60;;
11541;SDS011;5827;49.482;7.716;2022-07-12T06:35:08;5.00;;;4.43;;
11541;SDS011;5827;49.482;7.716;2022-07-12T06:37:10;4.57;;;4.00;;
11541;SDS011;5827;49.482;7.716;2022-07-12T06:39:13;4.23;;;3.83;;
11541;SDS011;5827;49.482;7.716;2022-07-12T06:41:14;3.80;;;3.50;;
11541;SDS011;5827;49.482;7.716;2022-07-12T06:43:16;4.30;;;3.87;;
11541;SDS011;5827;49.482;7.716;2022-07-12T06:45:20;3.93;;;3.63;;
11541;SDS011;5827;49.482;7.716;2022-07-12T06:47:22;3.20;;;3.00;;
11541;SDS011;5827;49.482;7.716;2022-07-12T06:49:26;6.63;;;3.60;;
11541;SDS011;5827;49.482;7.716;2022-07-12T06:51:28;3.57;;;3.37;;
11541;SDS011;5827;49.482;7.716;2022-07-12T06:53:29;3.40;;;3.17;;
11541;SDS011;5827;49.482;7.716;2022-07-12T06:55:31;4.70;;;2.77;;
11541;SDS011;5827;49.482;7.716;2022-07-12T06:57:33;2.77;;;2.40;;
11541;SDS011;5827;49.482;7.716;2022-07-12T06:59:35;2.63;;;2.43;;
11541;SDS011;5827;49.482;7.716;2022-07-12T07:01:37;2.10;;;2.00;;
11541;SDS011;5827;49.482;7.716;2022-07-12T07:03:40;2.53;;;1.80;;
11541;SDS011;5827;49.482;7.716;2022-07-12T07:05:43;2.03;;;1.83;;
11541;SDS011;5827;49.482;7.716;2022-07-12T07:07:44;2.23;;;2.03;;
11541;SDS011;5827;49.482;7.716;2022-07-12T07:09:46;1.70;;;1.60;;
11541;SDS011;5827;49.482;7.716;2022-07-12T07:11:48;1.87;;;1.30;;
11541;SDS011;5827;49.482;7.716;2022-07-12T07:13:51;1.50;;;1.40;;
11541;SDS011;5827;49.482;7.716;2022-07-12T07:15:53;1.93;;;1.27;;
11541;SDS011;5827;49.482;7.716;2022-07-12T07:17:55;1.40;;;1.40;;
11541;SDS011;5827;49.482;7.716;2022-07-12T07:19:57;1.67;;;1.30;;
11541;SDS011;5827;49.482;7.716;2022-07-12T07:22:00;1.40;;;1.30;;
11541;SDS011;5827;49.482;7.716;2022-07-12T07:24:02;3.07;;;1.30;;
11541;SDS011;5827;49.482;7.716;2022-07-12T07:26:05;1.70;;;1.40;;
11541;SDS011;5827;49.482;7.716;2022-07-12T07:28:07;1.30;;;1.20;;
11541;SDS011;5827;49.482;7.716;2022-07-12T07:30:09;2.77;;;1.30;;
11541;SDS011;5827;49.482;7.716;2022-07-12T07:32:29;1.77;;;1.50;;
11541;SDS011;5827;49.482;7.716;2022-07-12T07:34:31;1.50;;;1.40;;
11541;SDS011;5827;49.482;7.716;2022-07-12T07:36:35;2.30;;;1.60;;
11541;SDS011;5827;49.482;7.716;2022-07-12T07:38:40;1.73;;;1.33;;
11541;SDS011;5827;49.482;7.716;2022-07-12T07:40:42;2.20;;;1.33;;
11541;SDS011;5827;49.482;7.716;2022-07-12T07:42:44;1.40;;;1.30;;
11541;SDS011;5827;49.482;7.716;2022-07-12T07:44:46;1.10;;;0.97;;
11541;SDS011;5827;49.482;7.716;2022-07-12T07:46:48;2.97;;;1.10;;
11541;SDS011;5827;49.482;7.716;2022-07-12T07:48:50;1.30;;;1.20;;
11541;SDS011;5827;49.482;7.716;2022-07-12T07:50:52;0.97;;;0.90;;
11541;SDS011;5827;49.482;7.716;2022-07-12T07:52:54;1.20;;;1.10;;
11541;SDS011;5827;49.482;7.716;2022-07-12T07:54:57;0.97;;;0.70;;
11541;SDS011;5827;49.482;7.716;2022-07-12T07:56:59;3.30;;;0.93;;
11541;SDS011;5827;49.482;7.716;2022-07-12T07:59:04;0.90;;;0.90;;
11541;SDS011;5827;49.482;7.716;2022-07-12T08:01:08;3.77;;;1.00;;
11541;SDS011;5827;49.482;7.716;2022-07-12T08:03:10;0.83;;;0.70;;
11541;SDS011;5827;49.482;7.716;2022-07-12T08:05:12;0.70;;;0.70;;
11541;SDS011;5827;49.482;7.716;2022-07-12T08:07:14;0.83;;;0.83;;
11541;SDS011;5827;49.482;7.716;2022-07-12T08:09:18;0.83;;;0.83;;
11541;SDS011;5827;49.482;7.716;2022-07-12T08:11:24;0.90;;;0.90;;
11541;SDS011;5827;49.482;7.716;2022-07-12T08:13:27;1.30;;;1.17;;
11541;SDS011;5827;49.482;7.716;2022-07-12T08:15:30;0.87;;;0.83;;
11541;SDS011;5827;49.482;7.716;2022-07-12T08:17:33;0.70;;;0.70;;
11541;SDS011;5827;49.482;7.716;2022-07-12T08:19:37;9.17;;;1.20;;
11541;SDS011;5827;49.482;7.716;2022-07-12T08:21:39;1.03;;;0.90;;
11541;SDS011;5827;49.482;7.716;2022-07-12T08:23:41;2.10;;;1.00;;
11541;SDS011;5827;49.482;7.716;2022-07-12T08:25:42;1.90;;;1.10;;
11541;SDS011;5827;49.482;7.716;2022-07-12T08:27:45;1.23;;;0.90;;
11541;SDS011;5827;49.482;7.716;2022-07-12T08:29:47;1.27;;;1.17;;
11541;SDS011;5827;49.482;7.716;2022-07-12T08:31:48;1.37;;;1.07;;
11541;SDS011;5827;49.482;7.716;2022-07-12T08:33:51;1.20;;;1.10;;
11541;SDS011;5827;49.482;7.716;2022-07-12T08:35:53;1.57;;;1.00;;
11541;SDS011;5827;49.482;7.716;2022-07-12T08:37:54;1.10;;;1.00;;
11541;SDS011;5827;49.482;7.716;2022-07-12T08:39:56;2.97;;;1.20;;
11541;SDS011;5827;49.482;7.716;2022-07-12T08:41:57;3.00;;;1.40;;
11541;SDS011;5827;49.482;7.716;2022-07-12T08:44:00;1.60;;;1.00;;
11541;SDS011;5827;49.482;7.716;2022-07-12T08:46:03;0.93;;;0.93;;
11541;SDS011;5827;49.482;7.716;2022-07-12T08:48:05;1.10;;;1.10;;
11541;SDS011;5827;49.482;7.716;2022-07-12T08:50:14;1.57;;;1.10;;
11541;SDS011;5827;49.482;7.716;2022-07-12T08:52:26;1.40;;;1.30;;
11541;SDS011;5827;49.482;7.716;2022-07-12T08:54:37;1.00;;;1.00;;
11541;SDS011;5827;49.482;7.716;2022-07-12T08:56:40;0.93;;;0.93;;
11541;SDS011;5827;49.482;7.716;2022-07-12T08:58:43;1.17;;;1.00;;
11541;SDS011;5827;49.482;7.716;2022-07-12T09:00:46;0.80;;;0.80;;
11541;SDS011;5827;49.482;7.716;2022-07-12T09:02:48;1.77;;;1.00;;
11541;SDS011;5827;49.482;7.716;2022-07-12T09:04:56;1.20;;;1.00;;
11541;SDS011;5827;49.482;7.716;2022-07-12T09:07:12;0.87;;;0.87;;
11541;SDS011;5827;49.482;7.716;2022-07-12T09:09:25;0.90;;;0.90;;
11541;SDS011;5827;49.482;7.716;2022-07-12T09:11:28;1.10;;;1.10;;
11541;SDS011;5827;49.482;7.716;2022-07-12T09:13:46;1.47;;;1.07;;
11541;SDS011;5827;49.482;7.716;2022-07-12T09:15:50;1.13;;;1.10;;
11541;SDS011;5827;49.482;7.716;2022-07-12T09:17:55;1.30;;;1.20;;
11541;SDS011;5827;49.482;7.716;2022-07-12T09:19:58;2.35;;;1.30;;
11541;SDS011;5827;49.482;7.716;2022-07-12T09:21:59;1.30;;;1.20;;
11541;SDS011;5827;49.482;7.716;2022-07-12T09:24:01;1.20;;;1.20;;
11541;SDS011;5827;49.482;7.716;2022-07-12T09:26:07;1.20;;;1.17;;
11541;SDS011;5827;49.482;7.716;2022-07-12T09:28:10;1.10;;;1.10;;
11541;SDS011;5827;49.482;7.716;2022-07-12T09:30:12;5.85;;;1.50;;
11541;SDS011;5827;49.482;7.716;2022-07-12T09:32:15;2.93;;;0.97;;
11541;SDS011;5827;49.482;7.716;2022-07-12T09:34:34;2.53;;;1.00;;
11541;SDS011;5827;49.482;7.716;2022-07-12T09:36:58;1.20;;;1.10;;
11541;SDS011;5827;49.482;7.716;2022-07-12T09:39:00;1.30;;;1.20;;
11541;SDS011;5827;49.482;7.716;2022-07-12T09:41:02;1.23;;;1.13;;
11541;SDS011;5827;49.482;7.716;2022-07-12T09:43:04;1.48;;;1.38;;
11541;SDS011;5827;49.482;7.716;2022-07-12T09:45:07;1.20;;;1.10;;
11541;SDS011;5827;49.482;7.716;2022-07-12T09:47:11;2.20;;;1.20;;
11541;SDS011;5827;49.482;7.716;2022-07-12T09:49:17;1.10;;;1.10;;
11541;SDS011;5827;49.482;7.716;2022-07-12T09:51:20;1.52;;;1.08;;
11541;SDS011;5827;49.482;7.716;2022-07-12T09:53:26;1.02;;;0.95;;
11541;SDS011;5827;49.482;7.716;2022-07-12T09:55:29;1.00;;;1.00;;
11541;SDS011;5827;49.482;7.716;2022-07-12T09:57:31;2.25;;;1.20;;
11541;SDS011;5827;49.482;7.716;2022-07-12T09:59:34;1.88;;;1.10;;
11541;SDS011;5827;49.482;7.716;2022-07-12T10:01:38;3.53;;;1.10;;
11541;SDS011;5827;49.482;7.716;2022-07-12T10:03:40;1.60;;;1.13;;
11541;SDS011;5827;49.482;7.716;2022-07-12T10:05:44;3.53;;;1.40;;
11541;SDS011;5827;49.482;7.716;2022-07-12T10:07:47;1.98;;;0.98;;
11541;SDS011;5827;49.482;7.716;2022-07-12T10:09:50;1.75;;;1.30;;
11541;SDS011;5827;49.482;7.716;2022-07-12T10:11:53;2.00;;;1.10;;
11541;SDS011;5827;49.482;7.716;2022-07-12T10:13:56;1.00;;;1.00;;
11541;SDS011;5827;49.482;7.716;2022-07-12T10:15:59;1.23;;;1.10;;
11541;SDS011;5827;49.482;7.716;2022-07-12T10:18:02;1.35;;;1.25;;
11541;SDS011;5827;49.482;7.716;2022-07-12T10:20:13;1.80;;;1.20;;
11541;SDS011;5827;49.482;7.716;2022-07-12T10:22:21;0.90;;;0.90;;
11541;SDS011;5827;49.482;7.716;2022-07-12T10:26:49;0.82;;;0.82;;
11541;SDS011;5827;49.482;7.716;2022-07-12T10:29:00;3.13;;;1.20;;
11541;SDS011;5827;49.482;7.716;2022-07-12T10:31:03;1.85;;;1.00;;
11541;SDS011;5827;49.482;7.716;2022-07-12T10:33:14;0.98;;;0.98;;
11541;SDS011;5827;49.482;7.716;2022-07-12T10:35:17;1.90;;;0.90;;
11541;SDS011;5827;49.482;7.716;2022-07-12T10:37:24;1.33;;;1.23;;
11541;SDS011;5827;49.482;7.716;2022-07-12T10:39:27;0.90;;;0.90;;
11541;SDS011;5827;49.482;7.716;2022-07-12T10:41:29;0.80;;;0.80;;
11541;SDS011;5827;49.482;7.716;2022-07-12T10:43:31;1.00;;;1.00;;
11541;SDS011;5827;49.482;7.716;2022-07-12T10:45:50;1.10;;;1.10;;
11541;SDS011;5827;49.482;7.716;2022-07-12T10:47:54;1.05;;;1.05;;
11541;SDS011;5827;49.482;7.716;2022-07-12T10:49:57;1.13;;;0.93;;
11541;SDS011;5827;49.482;7.716;2022-07-12T10:52:14;1.17;;;1.00;;
11541;SDS011;5827;49.482;7.716;2022-07-12T10:54:20;1.88;;;1.05;;
11541;SDS011;5827;49.482;7.716;2022-07-12T10:56:23;1.30;;;1.10;;
11541;SDS011;5827;49.482;7.716;2022-07-12T10:58:29;1.15;;;1.10;;
11541;SDS011;5827;49.482;7.716;2022-07-12T11:00:31;2.60;;;1.10;;
11541;SDS011;5827;49.482;7.716;2022-07-12T11:02:33;0.90;;;0.90;;
11541;SDS011;5827;49.482;7.716;2022-07-12T11:04:35;0.93;;;0.93;;
11541;SDS011;5827;49.482;7.716;2022-07-12T11:06:37;1.17;;;1.05;;
11541;SDS011;5827;49.482;7.716;2022-07-12T11:08:46;1.27;;;1.08;;
11541;SDS011;5827;49.482;7.716;2022-07-12T11:10:55;1.10;;;1.10;;
11541;SDS011;5827;49.482;7.716;2022-07-12T11:12:57;4.43;;;1.20;;
11541;SDS011;5827;49.482;7.716;2022-07-12T11:14:59;3.67;;;1.00;;
11541;SDS011;5827;49.482;7.716;2022-07-12T11:17:01;3.92;;;1.10;;
11541;SDS011;5827;49.482;7.716;2022-07-12T11:19:02;1.10;;;1.10;;
11541;SDS011;5827;49.482;7.716;2022-07-12T11:21:09;1.30;;;0.98;;
11541;SDS011;5827;49.482;7.716;2022-07-12T11:23:11;1.85;;;1.02;;
11541;SDS011;5827;49.482;7.716;2022-07-12T11:25:12;1.80;;;1.20;;
11541;SDS011;5827;49.482;7.716;2022-07-12T11:27:16;1.45;;;0.93;;
11541;SDS011;5827;49.482;7.716;2022-07-12T11:29:18;1.00;;;1.00;;
11541;SDS011;5827;49.482;7.716;2022-07-12T11:31:20;1.10;;;0.93;;
11541;SDS011;5827;49.482;7.716;2022-07-12T11:33:24;0.90;;;0.90;;
11541;SDS011;5827;49.482;7.716;2022-07-12T11:35:26;0.98;;;0.98;;
11541;SDS011;5827;49.482;7.716;2022-07-12T11:37:29;1.30;;;1.20;;
11541;SDS011;5827;49.482;7.716;2022-07-12T11:39:31;1.30;;;1.10;;
11541;SDS011;5827;49.482;7.716;2022-07-12T11:41:34;2.38;;;1.00;;
11541;SDS011;5827;49.482;7.716;2022-07-12T11:43:37;0.93;;;0.93;;
11541;SDS011;5827;49.482;7.716;2022-07-12T11:45:40;1.58;;;0.95;;
11541;SDS011;5827;49.482;7.716;2022-07-12T11:47:43;2.08;;;0.98;;
11541;SDS011;5827;49.482;7.716;2022-07-12T11:49:45;3.70;;;1.00;;
11541;SDS011;5827;49.482;7.716;2022-07-12T11:51:47;1.98;;;1.15;;
11541;SDS011;5827;49.482;7.716;2022-07-12T11:53:51;1.00;;;1.00;;
11541;SDS011;5827;49.482;7.716;2022-07-12T11:55:53;1.17;;;1.08;;
11541;SDS011;5827;49.482;7.716;2022-07-12T11:58:05;1.05;;;1.02;;
11541;SDS011;5827;49.482;7.716;2022-07-12T12:00:15;0.93;;;0.93;;
11541;SDS011;5827;49.482;7.716;2022-07-12T12:02:18;0.90;;;0.90;;
11541;SDS011;5827;49.482;7.716;2022-07-12T12:04:20;0.90;;;0.90;;
11541;SDS011;5827;49.482;7.716;2022-07-12T12:06:21;1.27;;;1.10;;
11541;SDS011;5827;49.482;7.716;2022-07-12T12:08:23;1.08;;;0.90;;
11541;SDS011;5827;49.482;7.716;2022-07-12T12:10:25;1.00;;;1.00;;
11541;SDS011;5827;49.482;7.716;2022-07-12T12:12:27;1.15;;;0.80;;
11541;SDS011;5827;49.482;7.716;2022-07-12T12:14:29;2.00;;;0.95;;
11541;SDS011;5827;49.482;7.716;2022-07-12T12:16:36;1.23;;;1.08;;
11541;SDS011;5827;49.482;7.716;2022-07-12T12:18:38;0.88;;;0.88;;
11541;SDS011;5827;49.482;7.716;2022-07-12T12:20:42;1.17;;;1.02;;
11541;SDS011;5827;49.482;7.716;2022-07-12T12:22:44;1.17;;;1.08;;
11541;SDS011;5827;49.482;7.716;2022-07-12T12:24:56;0.80;;;0.80;;
11541;SDS011;5827;49.482;7.716;2022-07-12T12:26:58;0.90;;;0.90;;
11541;SDS011;5827;49.482;7.716;2022-07-12T12:29:00;1.85;;;1.20;;
11541;SDS011;5827;49.482;7.716;2022-07-12T12:31:02;1.10;;;1.00;;
11541;SDS011;5827;49.482;7.716;2022-07-12T12:33:05;1.10;;;1.00;;